sensor_id;sensor_type;location;lat;lon;timestamp;temperature;humidity
16867;DHT22;8550;52.596;13.320;2024-03-02T00:03:31;7.40;99.90
16867;DHT22;8550;52.596;13.320;2024-03-02T00:08:33;7.50;99.90
16867;DHT22;8550;52.596;13.320;2024-03-02T00:13:35;7.40;99.90
16867;DHT22;8550;52.596;13.320;2024-03-02T00:18:39;7.50;99.90
16867;DHT22;8550;52.596;13.320;2024-03-02T00:23:41;7.60;99.90
16867;DHT22;8550;52.596;13.320;2024-03-02T00:28:43;7.60;99.90
16867;DHT22;8550;52.596;13.320;2024-03-02T00:33:47;7.70;99.90
16867;DHT22;8550;52.596;13.320;2024-03-02T00:38:52;7.70;99.90
16867;DHT22;8550;52.596;13.320;2024-03-02T00:43:58;7.60;99.90
16867;DHT22;8550;52.596;13.320;2024-03-02T00:49:03;7.70;99.90
16867;DHT22;8550;52.596;13.320;2024-03-02T00:54:07;7.70;99.90
16867;DHT22;8550;52.596;13.320;2024-03-02T00:59:10;7.60;99.90
16867;DHT22;8550;52.596;13.320;2024-03-02T01:04:13;7.70;99.90
16867;DHT22;8550;52.596;13.320;2024-03-02T01:09:15;7.60;99.90
16867;DHT22;8550;52.596;13.320;2024-03-02T01:14:18;7.60;99.90
16867;DHT22;8550;52.596;13.320;2024-03-02T01:19:21;7.60;99.90
16867;DHT22;8550;52.596;13.320;2024-03-02T01:24:23;7.60;99.90
16867;DHT22;8550;52.596;13.320;2024-03-02T01:29:25;7.60;99.90
16867;DHT22;8550;52.596;13.320;2024-03-02T01:34:28;7.70;99.90
16867;DHT22;8550;52.596;13.320;2024-03-02T01:39:30;7.70;99.90
16867;DHT22;8550;52.596;13.320;2024-03-02T01:44:32;7.70;99.90
16867;DHT22;8550;52.596;13.320;2024-03-02T01:49:35;7.70;99.90
16867;DHT22;8550;52.596;13.320;2024-03-02T01:54:39;7.60;99.90
16867;DHT22;8550;52.596;13.320;2024-03-02T01:59:41;7.90;99.90
16867;DHT22;8550;52.596;13.320;2024-03-02T02:04:44;7.80;99.90
16867;DHT22;8550;52.596;13.320;2024-03-02T02:09:46;7.80;99.90
16867;DHT22;8550;52.596;13.320;2024-03-02T02:14:48;7.70;99.90
16867;DHT22;8550;52.596;13.320;2024-03-02T02:19:52;7.70;99.90
16867;DHT22;8550;52.596;13.320;2024-03-02T02:24:55;7.80;99.90
16867;DHT22;8550;52.596;13.320;2024-03-02T02:29:57;7.70;99.90
16867;DHT22;8550;52.596;13.320;2024-03-02T02:35:00;7.80;99.90
16867;DHT22;8550;52.596;13.320;2024-03-02T02:40:04;7.90;99.90
16867;DHT22;8550;52.596;13.320;2024-03-02T02:45:07;7.90;99.90
16867;DHT22;8550;52.596;13.320;2024-03-02T02:50:10;7.90;99.90
16867;DHT22;8550;52.596;13.320;2024-03-02T02:55:13;7.90;99.90
16867;DHT22;8550;52.596;13.320;2024-03-02T03:00:17;8.00;99.90
16867;DHT22;8550;52.596;13.320;2024-03-02T03:05:20;8.00;99.90
16867;DHT22;8550;52.596;13.320;2024-03-02T03:10:23;8.20;99.90
16867;DHT22;8550;52.596;13.320;2024-03-02T03:15:27;8.40;99.90
16867;DHT22;8550;52.596;13.320;2024-03-02T03:20:29;8.40;99.90
16867;DHT22;8550;52.596;13.320;2024-03-02T03:25:33;8.50;99.90
16867;DHT22;8550;52.596;13.320;2024-03-02T03:30:34;8.60;99.90
16867;DHT22;8550;52.596;13.320;2024-03-02T03:35:36;8.70;99.90
16867;DHT22;8550;52.596;13.320;2024-03-02T03:40:40;8.70;99.90
16867;DHT22;8550;52.596;13.320;2024-03-02T03:45:42;8.80;99.90
16867;DHT22;8550;52.596;13.320;2024-03-02T03:50:44;8.90;99.90
16867;DHT22;8550;52.596;13.320;2024-03-02T03:55:47;8.90;99.90
16867;DHT22;8550;52.596;13.320;2024-03-02T04:00:50;9.00;99.90
16867;DHT22;8550;52.596;13.320;2024-03-02T04:05:52;9.00;99.90
16867;DHT22;8550;52.596;13.320;2024-03-02T04:10:55;9.10;99.90
16867;DHT22;8550;52.596;13.320;2024-03-02T04:15:57;9.10;99.90
16867;DHT22;8550;52.596;13.320;2024-03-02T04:20:59;9.10;99.90
16867;DHT22;8550;52.596;13.320;2024-03-02T04:26:02;9.10;99.90
16867;DHT22;8550;52.596;13.320;2024-03-02T04:31:04;9.20;99.90
16867;DHT22;8550;52.596;13.320;2024-03-02T04:36:06;9.20;99.90
16867;DHT22;8550;52.596;13.320;2024-03-02T04:41:11;9.20;99.90
16867;DHT22;8550;52.596;13.320;2024-03-02T04:46:13;9.20;99.90
16867;DHT22;8550;52.596;13.320;2024-03-02T04:51:15;9.20;99.90
16867;DHT22;8550;52.596;13.320;2024-03-02T04:56:19;9.20;99.90
16867;DHT22;8550;52.596;13.320;2024-03-02T05:01:39;9.30;99.90
16867;DHT22;8550;52.596;13.320;2024-03-02T05:06:41;9.30;99.90
16867;DHT22;8550;52.596;13.320;2024-03-02T05:11:44;9.30;99.90
16867;DHT22;8550;52.596;13.320;2024-03-02T05:17:06;9.30;99.90
16867;DHT22;8550;52.596;13.320;2024-03-02T05:22:08;9.40;99.90
16867;DHT22;8550;52.596;13.320;2024-03-02T05:27:11;9.40;99.90
16867;DHT22;8550;52.596;13.320;2024-03-02T05:32:13;9.50;99.90
16867;DHT22;8550;52.596;13.320;2024-03-02T05:37:15;9.50;99.90
16867;DHT22;8550;52.596;13.320;2024-03-02T05:42:18;9.50;99.90
16867;DHT22;8550;52.596;13.320;2024-03-02T05:47:20;9.50;99.90
16867;DHT22;8550;52.596;13.320;2024-03-02T05:52:22;9.50;99.90
16867;DHT22;8550;52.596;13.320;2024-03-02T05:57:25;9.50;99.90
16867;DHT22;8550;52.596;13.320;2024-03-02T06:02:49;9.50;99.90
16867;DHT22;8550;52.596;13.320;2024-03-02T06:07:51;9.40;99.90
16867;DHT22;8550;52.596;13.320;2024-03-02T06:12:54;9.40;99.90
16867;DHT22;8550;52.596;13.320;2024-03-02T06:17:56;9.40;99.90
16867;DHT22;8550;52.596;13.320;2024-03-02T06:22:58;9.40;99.90
16867;DHT22;8550;52.596;13.320;2024-03-02T06:28:02;9.40;99.90
16867;DHT22;8550;52.596;13.320;2024-03-02T06:33:05;9.40;99.90
16867;DHT22;8550;52.596;13.320;2024-03-02T06:38:06;9.40;99.90
16867;DHT22;8550;52.596;13.320;2024-03-02T06:43:10;9.50;99.90
16867;DHT22;8550;52.596;13.320;2024-03-02T06:48:12;9.50;99.90
16867;DHT22;8550;52.596;13.320;2024-03-02T06:53:16;9.50;99.90
16867;DHT22;8550;52.596;13.320;2024-03-02T06:58:19;9.50;99.90
16867;DHT22;8550;52.596;13.320;2024-03-02T07:03:22;9.50;99.90
16867;DHT22;8550;52.596;13.320;2024-03-02T07:08:23;9.40;99.90
16867;DHT22;8550;52.596;13.320;2024-03-02T07:13:27;9.20;99.90
16867;DHT22;8550;52.596;13.320;2024-03-02T07:18:29;9.10;99.90
16867;DHT22;8550;52.596;13.320;2024-03-02T07:23:31;9.20;99.90
16867;DHT22;8550;52.596;13.320;2024-03-02T07:28:34;9.30;99.90
16867;DHT22;8550;52.596;13.320;2024-03-02T07:33:36;9.60;99.90
16867;DHT22;8550;52.596;13.320;2024-03-02T07:38:38;9.80;99.90
16867;DHT22;8550;52.596;13.320;2024-03-02T07:43:42;10.10;99.90
16867;DHT22;8550;52.596;13.320;2024-03-02T07:48:44;10.20;99.90
16867;DHT22;8550;52.596;13.320;2024-03-02T07:53:46;10.20;99.90
16867;DHT22;8550;52.596;13.320;2024-03-02T07:58:49;10.30;99.90
16867;DHT22;8550;52.596;13.320;2024-03-02T08:03:52;10.20;99.90
16867;DHT22;8550;52.596;13.320;2024-03-02T08:08:54;10.30;99.90
16867;DHT22;8550;52.596;13.320;2024-03-02T08:13:57;10.30;99.90
16867;DHT22;8550;52.596;13.320;2024-03-02T08:18:59;10.30;99.90
16867;DHT22;8550;52.596;13.320;2024-03-02T08:24:02;10.40;99.90
16867;DHT22;8550;52.596;13.320;2024-03-02T08:29:05;10.50;99.90
16867;DHT22;8550;52.596;13.320;2024-03-02T08:34:07;10.70;99.90
16867;DHT22;8550;52.596;13.320;2024-03-02T08:39:10;10.90;99.90
16867;DHT22;8550;52.596;13.320;2024-03-02T08:44:18;11.00;99.90
16867;DHT22;8550;52.596;13.320;2024-03-02T08:49:20;11.30;99.90
16867;DHT22;8550;52.596;13.320;2024-03-02T08:54:22;11.20;99.90
16867;DHT22;8550;52.596;13.320;2024-03-02T08:59:25;11.10;99.90
16867;DHT22;8550;52.596;13.320;2024-03-02T09:04:28;11.00;99.90
16867;DHT22;8550;52.596;13.320;2024-03-02T09:09:30;10.90;99.90
16867;DHT22;8550;52.596;13.320;2024-03-02T09:14:35;10.80;99.90
16867;DHT22;8550;52.596;13.320;2024-03-02T09:19:38;10.90;99.90
16867;DHT22;8550;52.596;13.320;2024-03-02T09:24:40;11.00;99.90
16867;DHT22;8550;52.596;13.320;2024-03-02T09:29:43;11.00;99.90
16867;DHT22;8550;52.596;13.320;2024-03-02T09:34:45;11.00;99.90
16867;DHT22;8550;52.596;13.320;2024-03-02T09:39:48;11.00;99.90
16867;DHT22;8550;52.596;13.320;2024-03-02T09:44:53;11.10;99.90
16867;DHT22;8550;52.596;13.320;2024-03-02T09:49:55;11.20;99.90
16867;DHT22;8550;52.596;13.320;2024-03-02T09:54:57;11.40;99.90
16867;DHT22;8550;52.596;13.320;2024-03-02T10:00:00;11.50;99.90
16867;DHT22;8550;52.596;13.320;2024-03-02T10:05:03;11.60;99.90
16867;DHT22;8550;52.596;13.320;2024-03-02T10:10:15;11.90;99.90
16867;DHT22;8550;52.596;13.320;2024-03-02T10:15:25;12.20;99.90
16867;DHT22;8550;52.596;13.320;2024-03-02T10:20:27;12.50;99.90
16867;DHT22;8550;52.596;13.320;2024-03-02T10:25:31;12.90;99.90
16867;DHT22;8550;52.596;13.320;2024-03-02T10:30:35;13.20;99.90
16867;DHT22;8550;52.596;13.320;2024-03-02T10:35:41;13.60;99.90
16867;DHT22;8550;52.596;13.320;2024-03-02T10:40:47;13.40;99.90
16867;DHT22;8550;52.596;13.320;2024-03-02T10:45:51;13.20;99.90
16867;DHT22;8550;52.596;13.320;2024-03-02T10:50:55;13.60;99.90
16867;DHT22;8550;52.596;13.320;2024-03-02T10:56:03;14.00;99.90
16867;DHT22;8550;52.596;13.320;2024-03-02T11:01:11;14.60;99.90
16867;DHT22;8550;52.596;13.320;2024-03-02T11:06:14;15.20;99.90
16867;DHT22;8550;52.596;13.320;2024-03-02T11:11:21;16.80;99.90
16867;DHT22;8550;52.596;13.320;2024-03-02T11:16:30;18.50;98.90
16867;DHT22;8550;52.596;13.320;2024-03-02T11:21:35;18.60;96.80
16867;DHT22;8550;52.596;13.320;2024-03-02T11:26:38;17.20;99.50
16867;DHT22;8550;52.596;13.320;2024-03-02T11:31:59;16.20;99.90
16867;DHT22;8550;52.596;13.320;2024-03-02T11:37:02;15.40;99.90
16867;DHT22;8550;52.596;13.320;2024-03-02T11:42:05;15.20;99.90
16867;DHT22;8550;52.596;13.320;2024-03-02T11:47:13;15.20;99.90
16867;DHT22;8550;52.596;13.320;2024-03-02T11:52:18;14.90;99.90
16867;DHT22;8550;52.596;13.320;2024-03-02T11:57:21;14.70;99.90
16867;DHT22;8550;52.596;13.320;2024-03-02T12:02:24;14.70;99.90
16867;DHT22;8550;52.596;13.320;2024-03-02T12:07:26;14.70;99.90
16867;DHT22;8550;52.596;13.320;2024-03-02T12:12:28;15.10;99.90
16867;DHT22;8550;52.596;13.320;2024-03-02T12:17:32;15.20;99.90
16867;DHT22;8550;52.596;13.320;2024-03-02T12:22:34;15.30;99.90
16867;DHT22;8550;52.596;13.320;2024-03-02T12:27:36;15.20;99.90
16867;DHT22;8550;52.596;13.320;2024-03-02T12:32:39;15.40;99.90
16867;DHT22;8550;52.596;13.320;2024-03-02T12:37:43;15.90;99.90
16867;DHT22;8550;52.596;13.320;2024-03-02T12:42:46;16.20;99.90
16867;DHT22;8550;52.596;13.320;2024-03-02T12:47:50;16.10;99.90
16867;DHT22;8550;52.596;13.320;2024-03-02T12:52:53;16.40;99.90
16867;DHT22;8550;52.596;13.320;2024-03-02T12:57:56;16.50;99.90
16867;DHT22;8550;52.596;13.320;2024-03-02T13:03:01;16.50;99.90
16867;DHT22;8550;52.596;13.320;2024-03-02T13:08:05;16.50;99.90
16867;DHT22;8550;52.596;13.320;2024-03-02T13:13:08;16.70;99.90
16867;DHT22;8550;52.596;13.320;2024-03-02T13:18:11;17.20;99.90
16867;DHT22;8550;52.596;13.320;2024-03-02T13:23:13;17.30;99.80
16867;DHT22;8550;52.596;13.320;2024-03-02T13:28:15;16.80;99.90
16867;DHT22;8550;52.596;13.320;2024-03-02T13:33:19;16.80;99.90
16867;DHT22;8550;52.596;13.320;2024-03-02T13:38:24;16.90;98.70
16867;DHT22;8550;52.596;13.320;2024-03-02T13:43:26;17.60;98.50
16867;DHT22;8550;52.596;13.320;2024-03-02T13:48:29;18.30;96.30
16867;DHT22;8550;52.596;13.320;2024-03-02T13:53:31;18.10;94.50
16867;DHT22;8550;52.596;13.320;2024-03-02T13:58:33;18.20;94.60
16867;DHT22;8550;52.596;13.320;2024-03-02T14:03:37;18.30;94.20
16867;DHT22;8550;52.596;13.320;2024-03-02T14:08:39;18.00;92.50
16867;DHT22;8550;52.596;13.320;2024-03-02T14:13:41;17.90;94.80
16867;DHT22;8550;52.596;13.320;2024-03-02T14:18:46;18.50;93.90
16867;DHT22;8550;52.596;13.320;2024-03-02T14:23:48;19.40;91.40
16867;DHT22;8550;52.596;13.320;2024-03-02T14:28:50;18.90;88.10
16867;DHT22;8550;52.596;13.320;2024-03-02T14:33:54;17.90;92.00
16867;DHT22;8550;52.596;13.320;2024-03-02T14:38:56;17.60;91.50
16867;DHT22;8550;52.596;13.320;2024-03-02T14:43:58;17.40;91.40
16867;DHT22;8550;52.596;13.320;2024-03-02T14:49:02;17.30;92.80
16867;DHT22;8550;52.596;13.320;2024-03-02T14:54:04;17.50;92.20
16867;DHT22;8550;52.596;13.320;2024-03-02T14:59:06;17.30;92.60
16867;DHT22;8550;52.596;13.320;2024-03-02T15:04:09;17.10;93.00
16867;DHT22;8550;52.596;13.320;2024-03-02T15:09:11;17.90;91.80
16867;DHT22;8550;52.596;13.320;2024-03-02T15:14:14;18.50;90.70
16867;DHT22;8550;52.596;13.320;2024-03-02T15:19:17;18.60;89.80
16867;DHT22;8550;52.596;13.320;2024-03-02T15:24:19;18.50;90.10
16867;DHT22;8550;52.596;13.320;2024-03-02T15:29:21;18.70;89.80
16867;DHT22;8550;52.596;13.320;2024-03-02T15:34:30;19.00;89.60
16867;DHT22;8550;52.596;13.320;2024-03-02T15:39:33;19.00;89.20
16867;DHT22;8550;52.596;13.320;2024-03-02T15:44:34;19.20;90.30
16867;DHT22;8550;52.596;13.320;2024-03-02T15:49:38;19.00;90.20
16867;DHT22;8550;52.596;13.320;2024-03-02T15:54:40;17.80;92.30
16867;DHT22;8550;52.596;13.320;2024-03-02T15:59:44;17.30;93.60
16867;DHT22;8550;52.596;13.320;2024-03-02T16:04:47;16.50;94.70
16867;DHT22;8550;52.596;13.320;2024-03-02T16:09:49;15.70;96.20
16867;DHT22;8550;52.596;13.320;2024-03-02T16:14:51;15.30;98.40
16867;DHT22;8550;52.596;13.320;2024-03-02T16:19:54;14.80;99.90
16867;DHT22;8550;52.596;13.320;2024-03-02T16:24:58;14.50;99.90
16867;DHT22;8550;52.596;13.320;2024-03-02T16:30:00;14.20;99.90
16867;DHT22;8550;52.596;13.320;2024-03-02T16:35:04;13.80;99.90
16867;DHT22;8550;52.596;13.320;2024-03-02T16:40:10;13.40;99.90
16867;DHT22;8550;52.596;13.320;2024-03-02T16:45:13;13.00;99.90
16867;DHT22;8550;52.596;13.320;2024-03-02T16:50:17;12.70;99.90
16867;DHT22;8550;52.596;13.320;2024-03-02T16:55:18;12.40;99.90
16867;DHT22;8550;52.596;13.320;2024-03-02T17:00:21;12.20;99.90
16867;DHT22;8550;52.596;13.320;2024-03-02T17:05:24;12.00;99.90
16867;DHT22;8550;52.596;13.320;2024-03-02T17:10:26;11.80;99.90
16867;DHT22;8550;52.596;13.320;2024-03-02T17:15:28;11.70;99.90
16867;DHT22;8550;52.596;13.320;2024-03-02T17:20:32;11.70;99.90
16867;DHT22;8550;52.596;13.320;2024-03-02T17:25:36;11.50;99.90
16867;DHT22;8550;52.596;13.320;2024-03-02T17:30:38;11.40;99.90
16867;DHT22;8550;52.596;13.320;2024-03-02T17:35:41;11.40;99.90
16867;DHT22;8550;52.596;13.320;2024-03-02T17:40:45;11.40;99.90
16867;DHT22;8550;52.596;13.320;2024-03-02T17:45:47;11.30;99.90
16867;DHT22;8550;52.596;13.320;2024-03-02T17:50:51;11.20;99.90
16867;DHT22;8550;52.596;13.320;2024-03-02T17:55:53;11.20;99.90
16867;DHT22;8550;52.596;13.320;2024-03-02T18:00:55;11.20;99.90
16867;DHT22;8550;52.596;13.320;2024-03-02T18:05:59;11.20;99.90
16867;DHT22;8550;52.596;13.320;2024-03-02T18:11:04;11.10;99.90
16867;DHT22;8550;52.596;13.320;2024-03-02T18:16:07;10.90;99.90
16867;DHT22;8550;52.596;13.320;2024-03-02T18:21:10;10.80;99.90
16867;DHT22;8550;52.596;13.320;2024-03-02T18:26:12;10.70;99.90
16867;DHT22;8550;52.596;13.320;2024-03-02T18:31:14;10.60;99.90
16867;DHT22;8550;52.596;13.320;2024-03-02T18:36:21;10.60;99.90
16867;DHT22;8550;52.596;13.320;2024-03-02T18:41:24;10.50;99.90
16867;DHT22;8550;52.596;13.320;2024-03-02T18:46:26;10.50;99.90
16867;DHT22;8550;52.596;13.320;2024-03-02T18:51:29;10.40;99.90
16867;DHT22;8550;52.596;13.320;2024-03-02T18:56:31;10.40;99.90
16867;DHT22;8550;52.596;13.320;2024-03-02T19:01:33;10.30;99.90
16867;DHT22;8550;52.596;13.320;2024-03-02T19:06:37;10.40;99.90
16867;DHT22;8550;52.596;13.320;2024-03-02T19:11:39;10.30;99.90
16867;DHT22;8550;52.596;13.320;2024-03-02T19:16:41;10.40;99.90
16867;DHT22;8550;52.596;13.320;2024-03-02T19:21:46;10.30;99.90
16867;DHT22;8550;52.596;13.320;2024-03-02T19:26:48;10.30;99.90
16867;DHT22;8550;52.596;13.320;2024-03-02T19:31:49;10.30;99.90
16867;DHT22;8550;52.596;13.320;2024-03-02T19:36:53;10.20;99.90
16867;DHT22;8550;52.596;13.320;2024-03-02T19:41:57;10.20;99.90
16867;DHT22;8550;52.596;13.320;2024-03-02T19:47:00;10.20;99.90
16867;DHT22;8550;52.596;13.320;2024-03-02T19:52:04;10.30;99.90
16867;DHT22;8550;52.596;13.320;2024-03-02T19:57:09;10.30;99.90
16867;DHT22;8550;52.596;13.320;2024-03-02T20:02:11;10.30;99.90
16867;DHT22;8550;52.596;13.320;2024-03-02T20:07:14;10.20;99.90
16867;DHT22;8550;52.596;13.320;2024-03-02T20:12:16;10.10;99.90
16867;DHT22;8550;52.596;13.320;2024-03-02T20:17:19;10.00;99.90
16867;DHT22;8550;52.596;13.320;2024-03-02T20:22:23;10.00;99.90
16867;DHT22;8550;52.596;13.320;2024-03-02T20:27:25;10.00;99.90
16867;DHT22;8550;52.596;13.320;2024-03-02T20:32:27;9.90;99.90
16867;DHT22;8550;52.596;13.320;2024-03-02T20:37:31;9.80;99.90
16867;DHT22;8550;52.596;13.320;2024-03-02T20:42:32;9.80;99.90
16867;DHT22;8550;52.596;13.320;2024-03-02T20:47:36;9.70;99.90
16867;DHT22;8550;52.596;13.320;2024-03-02T20:52:40;9.70;99.90
16867;DHT22;8550;52.596;13.320;2024-03-02T20:57:44;9.70;99.90
16867;DHT22;8550;52.596;13.320;2024-03-02T21:02:45;9.70;99.90
16867;DHT22;8550;52.596;13.320;2024-03-02T21:07:49;9.70;99.90
16867;DHT22;8550;52.596;13.320;2024-03-02T21:12:51;9.60;99.90
16867;DHT22;8550;52.596;13.320;2024-03-02T21:17:54;9.60;99.90
16867;DHT22;8550;52.596;13.320;2024-03-02T21:22:57;9.60;99.90
16867;DHT22;8550;52.596;13.320;2024-03-02T21:27:59;9.80;99.90
16867;DHT22;8550;52.596;13.320;2024-03-02T21:33:01;9.80;99.90
16867;DHT22;8550;52.596;13.320;2024-03-02T21:38:05;9.70;99.90
16867;DHT22;8550;52.596;13.320;2024-03-02T21:43:08;9.70;99.90
16867;DHT22;8550;52.596;13.320;2024-03-02T21:48:10;9.80;99.90
16867;DHT22;8550;52.596;13.320;2024-03-02T21:53:13;9.70;99.90
16867;DHT22;8550;52.596;13.320;2024-03-02T21:58:16;9.70;99.90
16867;DHT22;8550;52.596;13.320;2024-03-02T22:03:17;9.60;99.90
16867;DHT22;8550;52.596;13.320;2024-03-02T22:08:21;9.70;99.90
16867;DHT22;8550;52.596;13.320;2024-03-02T22:13:23;9.60;99.90
16867;DHT22;8550;52.596;13.320;2024-03-02T22:18:24;9.60;99.90
16867;DHT22;8550;52.596;13.320;2024-03-02T22:23:29;9.60;99.90
16867;DHT22;8550;52.596;13.320;2024-03-02T22:28:32;9.50;99.90
16867;DHT22;8550;52.596;13.320;2024-03-02T22:33:34;9.50;99.90
16867;DHT22;8550;52.596;13.320;2024-03-02T22:38:37;9.50;99.90
16867;DHT22;8550;52.596;13.320;2024-03-02T22:43:39;9.40;99.90
16867;DHT22;8550;52.596;13.320;2024-03-02T22:48:41;9.40;99.90
16867;DHT22;8550;52.596;13.320;2024-03-02T22:53:44;9.40;99.90
16867;DHT22;8550;52.596;13.320;2024-03-02T22:58:46;9.40;99.90
16867;DHT22;8550;52.596;13.320;2024-03-02T23:03:49;9.30;99.90
16867;DHT22;8550;52.596;13.320;2024-03-02T23:08:52;9.40;99.90
16867;DHT22;8550;52.596;13.320;2024-03-02T23:13:54;9.40;99.90
16867;DHT22;8550;52.596;13.320;2024-03-02T23:18:56;9.40;99.90
16867;DHT22;8550;52.596;13.320;2024-03-02T23:24:00;9.40;99.90
16867;DHT22;8550;52.596;13.320;2024-03-02T23:29:01;9.50;99.90
16867;DHT22;8550;52.596;13.320;2024-03-02T23:34:03;9.50;99.90
16867;DHT22;8550;52.596;13.320;2024-03-02T23:39:07;9.50;99.90
16867;DHT22;8550;52.596;13.320;2024-03-02T23:44:10;9.60;99.90
16867;DHT22;8550;52.596;13.320;2024-03-02T23:49:14;9.50;99.90
16867;DHT22;8550;52.596;13.320;2024-03-02T23:54:17;9.50;99.90
16867;DHT22;8550;52.596;13.320;2024-03-02T23:59:20;9.60;99.90
